Time;durP1;ratioP1;P1;durP2;ratioP2;P2;SDS_P1;SDS_P2;PMS_P1;PMS_P2;Temp;Humidity;BMP_temperature;BMP_pressure;BME280_temperature;BME280_humidity;BME280_pressure;Samples;Min_cycle;Max_cycle;Signal;HPM_P1;HPM_P2
2022/11/19 00:02:24;;;;;;;7.80;6.40;;;-1.80;99.90;;;-141.84;73.62;18710.44;5052769;28;20712;-60
2022/11/19 00:04:52;;;;;;;10.07;7.40;;;-1.90;99.90;;;-141.84;73.45;18740.91;5052553;28;20236;-61
2022/11/19 00:07:21;;;;;;;8.90;6.87;;;;;;;-141.84;73.01;18679.94;5052630;28;20228;-61
2022/11/19 00:09:50;;;;;;;8.47;6.97;;;-1.90;99.90;;;-141.84;72.97;18712.47;5052117;28;20215;-61
2022/11/19 00:15:06;;;;;;;7.20;6.30;;;-1.80;99.90;;;-141.84;73.88;18702.28;5032687;28;20217;-62
2022/11/19 00:17:34;;;;;;;9.07;6.87;;;-1.90;99.90;;;-141.84;74.38;18698.22;5048542;28;20306;-60
2022/11/19 00:20:02;;;;;;;10.77;6.97;;;-2.00;99.90;;;-141.84;73.73;18667.75;5052294;28;20225;-60
2022/11/19 00:22:30;;;;;;;9.60;6.83;;;-2.00;99.90;;;-141.84;73.43;18708.41;5052373;28;20463;-61
2022/11/19 00:24:59;;;;;;;9.50;7.17;;;-2.00;99.90;;;-141.84;73.56;18700.25;5056827;28;20236;-62
2022/11/19 00:27:28;;;;;;;9.63;7.07;;;-2.10;99.90;;;-141.84;74.29;18692.13;5072850;28;20197;-62
2022/11/19 00:29:56;;;;;;;10.73;6.80;;;-2.10;99.90;;;-141.84;74.08;18688.06;5052576;28;20283;-62
2022/11/19 00:32:24;;;;;;;10.30;7.27;;;-2.20;99.90;;;-141.84;74.07;18679.94;5052356;28;20254;-62
2022/11/19 00:34:52;;;;;;;8.87;6.30;;;-2.20;99.90;;;-141.84;73.87;18677.91;5052064;28;20229;-62
2022/11/19 00:37:20;;;;;;;8.83;7.23;;;-2.20;99.90;;;-141.84;74.08;18716.53;5037948;28;20259;-61
2022/11/19 00:39:48;;;;;;;9.33;7.37;;;-2.20;99.90;;;-141.84;73.83;18700.25;5031869;28;20264;-61
2022/11/19 00:42:18;;;;;;;10.07;7.30;;;-2.20;99.90;;;-141.84;73.25;18702.28;5032619;28;20212;-62
2022/11/19 00:44:46;;;;;;;8.10;6.93;;;-2.20;99.90;;;-141.84;73.46;18663.69;5031623;28;20269;-60
2022/11/19 00:47:15;;;;;;;11.37;7.27;;;-2.10;99.90;;;-141.84;73.76;18688.06;5031802;28;20241;-61
2022/11/19 00:49:43;;;;;;;10.80;7.37;;;-2.10;99.90;;;-141.84;74.66;18710.44;5031865;28;20226;-62
2022/11/19 00:52:11;;;;;;;8.33;6.60;;;-2.20;99.90;;;-141.84;74.66;18704.31;5031958;28;20591;-62
2022/11/19 00:54:39;;;;;;;9.10;7.00;;;-2.30;99.90;;;-141.84;74.54;18696.19;5031717;28;20202;-62
2022/11/19 00:57:07;;;;;;;10.27;7.13;;;-2.30;99.90;;;-141.84;74.74;18673.84;5032138;28;20232;-62
2022/11/19 00:59:37;;;;;;;8.83;7.03;;;-2.30;99.90;;;-141.84;74.89;18698.22;5031377;28;20240;-62
2022/11/19 01:02:05;;;;;;;9.27;7.13;;;-2.30;99.90;;;-141.84;74.94;18690.09;5031439;28;20233;-61
2022/11/19 01:04:33;;;;;;;11.03;6.87;;;-2.40;99.90;;;-141.84;75.44;18710.44;5031039;28;20244;-63
2022/11/19 01:07:01;;;;;;;10.80;7.57;;;-2.50;99.90;;;-141.84;75.79;18690.09;5031238;28;20233;-62
2022/11/19 01:09:29;;;;;;;10.30;7.33;;;-2.50;99.90;;;-141.84;75.53;18686.03;5031408;28;20343;-61
2022/11/19 01:11:57;;;;;;;9.17;6.80;;;-2.50;99.90;;;-141.84;75.54;18690.09;5030950;28;20238;-62
2022/11/19 01:14:26;;;;;;;10.17;6.87;;;-2.50;99.90;;;-141.84;75.99;18690.09;5031182;28;20237;-61
2022/11/19 01:16:55;;;;;;;10.33;7.20;;;-2.60;99.90;;;-141.84;75.96;18698.22;5031168;28;20294;-60
2022/11/19 01:19:23;;;;;;;9.23;6.73;;;-2.60;99.90;;;-141.84;75.80;18684.00;5031246;28;20632;-62
2022/11/19 01:21:51;;;;;;;10.77;6.97;;;-2.50;99.90;;;-141.84;74.91;18679.94;5031162;28;20215;-61
2022/11/19 01:24:19;;;;;;;10.20;6.90;;;-2.50;99.90;;;-141.84;74.75;18726.69;5031331;28;20203;-62
2022/11/19 01:26:47;;;;;;;10.67;7.40;;;-2.40;99.90;;;-141.84;75.03;18659.63;5048921;28;20277;-60
2022/11/19 01:29:16;;;;;;;8.77;7.13;;;-2.40;99.90;;;-141.84;75.38;18686.03;5036899;28;20233;-61
2022/11/19 01:31:44;;;;;;;9.43;7.03;;;-2.40;99.90;;;-141.84;75.94;18706.38;5030881;28;20228;-61
2022/11/19 01:34:14;;;;;;;9.73;7.10;;;-2.50;99.90;;;-141.84;76.14;18665.72;5030968;28;20253;-62
2022/11/19 01:36:42;;;;;;;10.73;7.63;;;-2.60;99.90;;;-141.84;75.91;18684.00;5030178;28;20224;-60
2022/11/19 01:39:10;;;;;;;10.03;7.23;;;-2.70;99.90;;;-141.84;75.60;18708.41;5030949;28;20220;-61
2022/11/19 01:41:38;;;;;;;9.73;7.23;;;-2.60;99.90;;;-141.84;75.42;18700.25;5030507;28;20244;-62
2022/11/19 01:44:28;;;;;;;11.00;7.93;;;-2.60;99.90;;;-141.84;76.07;18655.56;5030630;28;20241;-62
2022/11/19 01:46:56;;;;;;;9.77;7.30;;;-2.60;99.90;;;-141.84;76.15;18669.78;5030301;28;20265;-60
2022/11/19 01:49:25;;;;;;;9.07;6.80;;;-2.70;99.90;;;-141.84;76.16;18702.28;5030592;28;20249;-61
2022/11/19 01:51:58;;;;;;;11.47;7.37;;;-2.70;99.90;;;-141.84;76.92;18675.88;5030684;28;20212;-62
2022/11/19 01:54:35;;;;;;;10.17;7.23;;;-2.70;99.90;;;-141.84;76.82;18686.03;5031092;28;20194;-61
2022/11/19 01:57:09;;;;;;;9.73;7.30;;;-2.60;99.90;;;-141.84;77.14;18700.25;5030471;28;20217;-61
2022/11/19 01:59:39;;;;;;;12.07;7.93;;;-2.70;99.90;;;-141.84;76.84;18714.50;5030372;28;20838;-61
2022/11/19 02:02:07;;;;;;;9.67;7.30;;;-2.70;99.90;;;-141.84;76.58;18690.09;5030059;28;20260;-62
2022/11/19 02:04:37;;;;;;;10.47;7.40;;;-2.70;99.90;;;-141.84;75.93;18671.81;5030458;28;20225;-62
2022/11/19 02:07:07;;;;;;;10.63;8.07;;;-2.70;99.90;;;-141.84;75.75;18671.81;5030405;28;20553;-61
2022/11/19 02:09:36;;;;;;;10.30;7.50;;;-2.70;99.90;;;-141.84;75.55;18651.50;5031025;28;20209;-61
2022/11/19 02:12:25;;;;;;;10.33;7.63;;;-2.70;99.90;;;-141.84;75.42;18671.81;5050508;28;20231;-62
2022/11/19 02:15:22;;;;;;;9.93;7.73;;;-2.70;99.90;;;-141.84;75.31;18679.94;5030421;28;20751;-62
2022/11/19 02:18:44;;;;;;;10.53;7.47;;;-2.80;99.90;;;-141.84;75.44;18712.47;5029717;28;20582;-63
2022/11/19 02:21:31;;;;;;;10.37;7.40;;;-2.80;99.90;;;-141.84;75.07;18679.94;5013627;28;20232;-62
2022/11/19 02:24:47;;;;;;;10.40;7.43;;;-2.80;99.90;;;-141.84;74.44;18686.03;5030408;28;20236;-61
2022/11/19 02:27:59;;;;;;;9.03;7.17;;;-2.70;99.90;;;-141.84;75.21;18688.06;5030148;28;20746;-62
2022/11/19 02:30:35;;;;;;;9.27;6.83;;;-2.80;99.90;;;-141.84;75.84;18671.81;5010778;28;20224;-62
2022/11/19 02:33:10;;;;;;;9.73;6.97;;;-2.90;99.90;;;-141.84;75.83;18663.69;5030444;28;20219;-61
2022/11/19 02:35:50;;;;;;;9.63;7.40;;;-2.90;99.90;;;-141.84;76.38;18688.06;5030067;28;20234;-62
2022/11/19 02:38:37;;;;;;;11.43;7.60;;;-2.90;99.90;;;-141.84;76.65;18681.97;5030041;28;20232;-61
2022/11/19 02:41:34;;;;;;;12.00;7.97;;;-3.00;99.90;;;-141.84;76.91;18641.34;5030223;28;20307;-62
2022/11/19 02:47:06;;;;;;;10.27;8.10;;;-3.00;99.90;;;-141.84;76.88;18675.88;5029776;28;20245;-62
2022/11/19 02:49:41;;;;;;;11.07;7.83;;;-3.00;99.90;;;-141.84;77.30;18671.81;5030087;28;20288;-61
2022/11/19 02:52:10;;;;;;;10.73;8.00;;;-3.10;99.90;;;-141.84;77.69;18657.59;5029926;28;20391;-62
2022/11/19 02:54:38;;;;;;;10.30;7.93;;;-3.10;99.90;;;-141.84;77.76;18655.56;5029702;28;20633;-62
2022/11/19 02:57:09;;;;;;;11.97;8.20;;;-3.10;99.90;;;-141.84;77.74;18673.84;5030362;28;20196;-61
2022/11/19 03:05:33;;;;;;;11.43;8.30;;;-3.10;99.90;;;-141.84;77.52;18696.19;5049972;28;20232;-62
2022/11/19 03:08:01;;;;;;;12.93;8.40;;;-3.20;99.90;;;-141.84;77.64;18647.44;5049583;28;20235;-61
2022/11/19 03:10:39;;;;;;;12.67;9.27;;;-3.20;99.90;;;-141.84;77.67;18657.59;5049431;28;20663;-62
2022/11/19 03:19:10;;;;;;;11.70;8.10;;;-3.20;99.90;;;-141.84;77.25;18675.88;5049262;28;20597;-61
2022/11/19 03:21:43;;;;;;;11.13;7.97;;;-3.20;99.90;;;-141.84;77.62;18671.81;5049855;28;20194;-60
2022/11/19 03:24:18;;;;;;;11.10;8.07;;;-3.20;99.90;;;-141.84;77.79;18667.75;5050118;28;20192;-60
2022/11/19 03:26:54;;;;;;;10.43;7.70;;;-3.30;99.90;;;-141.84;77.49;18661.66;5070648;28;20224;-61
2022/11/19 03:29:26;;;;;;;11.40;7.83;;;-3.20;99.90;;;-141.84;76.53;18671.81;5072809;28;20310;-62
2022/11/19 03:32:03;;;;;;;11.63;8.03;;;-3.10;99.90;;;-141.84;76.20;18653.53;5073106;28;20803;-62
2022/11/19 03:34:36;;;;;;;11.07;7.50;;;-3.00;99.90;;;-141.84;76.16;18673.84;5072972;28;20241;-61
2022/11/19 03:37:08;;;;;;;11.33;8.30;;;-3.00;99.90;;;-141.84;76.35;18692.13;5060885;28;20236;-62
2022/11/19 03:39:38;;;;;;;9.90;7.40;;;-3.00;99.90;;;-141.84;77.23;18669.78;5052944;28;20236;-61
2022/11/19 03:42:13;;;;;;;9.57;7.83;;;-3.10;99.90;;;-141.84;77.74;18633.22;5053805;28;20200;-60
2022/11/19 03:44:49;;;;;;;10.97;8.27;;;-3.10;99.90;;;-141.84;77.83;18653.53;5052583;28;20727;-60
2022/11/19 03:47:26;;;;;;;12.27;8.47;;;-3.20;99.90;;;-141.84;77.90;18673.84;5052591;28;20236;-60
2022/11/19 03:50:03;;;;;;;11.30;7.47;;;-3.30;99.90;;;-141.84;78.27;18647.44;5052891;28;20275;-62
2022/11/19 03:52:32;;;;;;;10.90;8.10;;;-3.30;99.90;;;-141.84;78.18;18614.94;5052815;28;20238;-63
2022/11/19 03:55:00;;;;;;;12.10;8.83;;;-3.40;99.90;;;-141.84;78.58;18653.53;5052012;28;20238;-62
2022/11/19 03:57:28;;;;;;;10.43;7.83;;;-3.40;99.90;;;-141.84;78.28;18669.78;5053239;28;20288;-62
2022/11/19 03:59:56;;;;;;;13.37;8.50;;;-3.30;99.90;;;-141.84;77.95;18629.16;5052168;28;20933;-62
2022/11/19 04:02:24;;;;;;;10.23;7.43;;;-3.30;99.90;;;-141.84;78.15;18641.34;5052544;28;20232;-61
2022/11/19 04:04:53;;;;;;;9.77;7.73;;;-3.40;99.90;;;-141.84;78.32;18679.94;5052491;28;20232;-61
2022/11/19 04:07:24;;;;;;;12.07;8.07;;;-3.40;99.90;;;-141.84;78.37;18667.75;5052367;28;20236;-63
2022/11/19 04:09:53;;;;;;;10.67;8.00;;;-3.40;99.90;;;-141.84;78.54;18655.56;5052214;28;20298;-61
2022/11/19 04:12:24;;;;;;;12.33;8.40;;;-3.40;99.90;;;-141.84;78.90;18671.81;5052986;28;20207;-61
2022/11/19 04:14:52;;;;;;;9.97;7.40;;;-3.50;99.90;;;-141.84;78.79;18659.63;5051971;28;20310;-62
2022/11/19 04:17:20;;;;;;;11.33;8.20;;;-3.50;99.90;;;-141.84;79.09;18653.53;5052127;28;20222;-61
2022/11/19 04:19:49;;;;;;;11.97;8.30;;;-3.50;99.90;;;-141.84;78.85;18645.41;5052040;28;20226;-61
2022/11/19 04:22:17;;;;;;;12.00;8.30;;;-3.50;99.90;;;-141.84;79.08;18655.56;5052162;28;20249;-61
2022/11/19 04:24:46;;;;;;;11.90;7.73;;;-3.50;99.90;;;-141.84;79.18;18633.22;5054812;28;20228;-61
2022/11/19 04:27:14;;;;;;;11.20;8.67;;;-3.50;99.90;;;-141.84;79.24;18679.94;5072625;28;20211;-64
2022/11/19 04:29:43;;;;;;;11.73;8.40;;;-3.50;99.90;;;-141.84;79.17;18631.19;5071681;28;20230;-61
2022/11/19 04:32:11;;;;;;;12.40;8.77;;;-3.50;99.90;;;-141.84;78.94;18655.56;5071907;28;20245;-60
2022/11/19 04:34:39;;;;;;;11.43;8.37;;;-3.50;99.90;;;-141.84;78.49;18631.19;5071730;28;20662;-62
2022/11/19 04:37:07;;;;;;;11.83;8.73;;;-3.50;99.90;;;-141.84;78.12;18669.78;5059357;28;20523;-62
2022/11/19 04:39:35;;;;;;;10.67;7.67;;;-3.50;99.90;;;-141.84;78.33;18651.50;5051296;28;20587;-61
2022/11/19 04:42:05;;;;;;;10.70;7.97;;;-3.50;99.90;;;-141.84;78.28;18637.28;5052171;28;20224;-61
2022/11/19 04:44:33;;;;;;;12.47;8.00;;;-3.60;99.90;;;-141.84;78.35;18641.34;5051549;28;20232;-62
2022/11/19 04:47:01;;;;;;;12.93;8.63;;;-3.60;99.90;;;-141.84;78.20;18633.22;5051643;28;20339;-61
2022/11/19 04:49:29;;;;;;;13.33;8.53;;;-3.60;99.90;;;-141.84;78.29;18677.91;5051621;28;20302;-61
2022/11/19 04:51:57;;;;;;;10.37;7.93;;;-3.60;99.90;;;-141.84;77.89;18637.28;5051340;28;20285;-62
2022/11/19 04:54:26;;;;;;;10.73;8.43;;;-3.70;99.90;;;-141.84;77.74;18688.06;5052151;28;20208;-60
2022/11/19 04:56:54;;;;;;;11.90;8.30;;;-3.60;99.90;;;-141.84;78.11;18643.38;5051665;28;20738;-61
2022/11/19 04:59:23;;;;;;;11.47;7.93;;;-3.70;99.90;;;-141.84;78.43;18649.47;5051244;28;20310;-61
2022/11/19 05:01:52;;;;;;;10.37;7.40;;;-3.70;99.90;;;-141.84;78.47;18671.81;5051367;28;20720;-60
2022/11/19 05:04:20;;;;;;;11.83;8.00;;;-3.80;99.90;;;-141.84;78.99;18667.75;5051161;28;20276;-61
2022/11/19 05:06:48;;;;;;;11.30;8.17;;;-3.80;99.90;;;-141.84;79.01;18616.97;5051502;28;20209;-62
2022/11/19 05:09:16;;;;;;;12.87;8.30;;;-3.70;99.90;;;-141.84;79.20;18647.44;5051570;28;20281;-61
2022/11/19 05:11:45;;;;;;;12.23;8.63;;;-3.80;99.90;;;-141.84;79.30;18635.25;5051364;28;20234;-61
2022/11/19 05:14:13;;;;;;;11.70;8.13;;;-3.80;99.90;;;-141.84;79.21;18643.38;5050870;28;20262;-61
2022/11/19 05:16:42;;;;;;;13.00;8.53;;;-3.80;99.90;;;-141.84;79.37;18645.41;5051290;28;20259;-61
2022/11/19 05:19:11;;;;;;;10.23;7.60;;;-3.80;99.90;;;-141.84;79.71;18647.44;5051000;28;20719;-62
2022/11/19 05:21:39;;;;;;;11.47;7.83;;;-3.80;99.90;;;-141.84;79.54;18647.44;5051282;28;20219;-62
2022/11/19 05:24:08;;;;;;;11.67;7.57;;;-3.80;99.90;;;-141.84;78.59;18657.59;5051221;28;20254;-61
2022/11/19 05:26:36;;;;;;;12.63;8.83;;;-3.80;99.90;;;-141.84;78.80;18633.22;5068890;28;20238;-60
2022/11/19 05:29:04;;;;;;;11.17;8.40;;;-3.80;99.90;;;-141.84;78.59;18643.38;5070809;28;20232;-63
2022/11/19 05:31:32;;;;;;;11.73;8.10;;;-3.80;99.90;;;-141.84;78.68;18653.53;5070850;28;20227;-61
2022/11/19 05:34:02;;;;;;;12.27;8.23;;;-3.80;99.90;;;-141.84;79.03;18633.22;5070684;28;20257;-61
2022/11/19 05:36:30;;;;;;;12.70;8.30;;;-3.80;99.90;;;-141.84;78.94;18655.56;5063922;28;20201;-62
2022/11/19 05:38:58;;;;;;;11.20;8.10;;;-3.80;99.90;;;-141.84;78.99;18643.38;5050629;28;20227;-61
2022/11/19 05:41:26;;;;;;;12.70;8.03;;;-3.80;99.90;;;-141.84;78.50;18627.13;5050459;28;20321;-61
2022/11/19 05:43:54;;;;;;;11.70;8.43;;;-3.80;99.90;;;-141.84;78.25;18673.84;5050639;28;20240;-60
2022/11/19 05:46:22;;;;;;;11.07;8.10;;;-3.80;99.90;;;-141.84;78.08;18641.34;5050499;28;20223;-60
2022/11/19 05:48:51;;;;;;;12.03;8.57;;;-3.80;99.90;;;-141.84;77.75;18675.88;5050282;28;20228;-61
2022/11/19 05:51:20;;;;;;;12.00;8.20;;;-3.70;99.90;;;-141.84;77.75;18661.66;5050942;28;20544;-62
2022/11/19 05:53:48;;;;;;;11.97;8.80;;;-3.80;99.90;;;-141.84;77.76;18655.56;5050406;28;20235;-61
2022/11/19 05:56:16;;;;;;;12.77;8.13;;;-3.80;99.90;;;-141.84;77.85;18663.69;5050248;28;20252;-60
2022/11/19 05:58:45;;;;;;;11.70;8.60;;;-3.80;99.90;;;-141.84;78.13;18651.50;5050493;28;20642;-61
2022/11/19 06:01:14;;;;;;;12.50;8.93;;;-3.80;99.90;;;-141.84;78.54;18627.13;5050411;28;20237;-62
2022/11/19 06:03:42;;;;;;;13.70;8.37;;;-3.90;99.90;;;-141.84;78.88;18623.06;5050670;28;20337;-60
2022/11/19 06:06:11;;;;;;;11.63;8.37;;;-3.90;99.90;;;-141.84;78.68;18643.38;5050950;28;20203;-62
2022/11/19 06:08:40;;;;;;;11.37;7.90;;;-3.90;99.90;;;-141.84;78.75;18659.63;5050113;28;20227;-61
2022/11/19 06:11:46;;;;;;;11.93;8.47;;;-3.90;99.90;;;-141.84;78.94;18647.44;5050132;28;20285;-61
2022/11/19 06:13:57;;;;;;;11.77;8.17;;;-3.90;99.90;;;-141.84;79.01;18653.53;5049906;28;20241;-61
2022/11/19 06:16:25;;;;;;;13.07;8.53;;;-3.90;99.90;;;-141.84;78.25;18655.56;5050259;28;20224;-61
2022/11/19 06:18:53;;;;;;;11.43;7.97;;;-3.90;99.90;;;-141.84;78.25;18627.13;5050276;28;20250;-60
2022/11/19 06:21:21;;;;;;;10.70;7.77;;;-3.90;99.90;;;-141.84;78.27;18651.50;5049016;28;20609;-62
2022/11/19 06:23:51;;;;;;;11.93;8.20;;;-3.90;99.90;;;-141.84;78.46;18643.38;5050299;28;20235;-61
2022/11/19 06:26:24;;;;;;;11.90;8.63;;;-3.90;99.90;;;-141.84;78.49;18663.69;5065726;28;20227;-61
2022/11/19 06:28:52;;;;;;;12.10;8.23;;;-3.90;99.90;;;-141.84;78.27;18651.50;5070011;28;20296;-62
2022/11/19 06:31:22;;;;;;;12.47;8.90;;;-3.90;99.90;;;-141.84;78.44;18671.81;5069997;28;20232;-61
2022/11/19 06:33:52;;;;;;;11.43;8.73;;;-3.90;99.90;;;-141.84;78.30;18639.31;5070031;28;20207;-61
2022/11/19 06:36:20;;;;;;;12.10;8.87;;;-3.90;99.90;;;-141.84;78.25;18677.91;5064576;28;20190;-61
2022/11/19 06:38:50;;;;;;;11.03;8.03;;;-3.90;99.90;;;-141.84;77.98;18667.75;5050199;28;20274;-61
2022/11/19 06:41:19;;;;;;;13.13;8.70;;;-3.80;99.90;;;-141.84;77.82;18659.63;5049855;28;20227;-61
2022/11/19 06:43:47;;;;;;;10.47;7.97;;;-3.80;99.90;;;-141.84;77.97;18665.72;5049611;28;20281;-60
2022/11/19 06:46:16;;;;;;;11.30;8.30;;;-3.90;99.90;;;-141.84;78.17;18643.38;5049720;28;20243;-61
2022/11/19 06:48:44;;;;;;;12.47;8.53;;;-3.90;99.90;;;-141.84;78.01;18649.47;5049864;28;20676;-62
2022/11/19 06:51:12;;;;;;;13.83;9.10;;;-3.80;99.90;;;-141.84;77.84;18657.59;5049989;28;20204;-61
2022/11/19 06:53:41;;;;;;;12.17;8.90;;;-3.80;99.90;;;-141.84;78.04;18647.44;5049652;28;20248;-60
2022/11/19 06:56:10;;;;;;;10.93;8.43;;;-3.80;99.90;;;-141.84;77.39;18661.66;5049864;28;20244;-61
2022/11/19 06:58:38;;;;;;;11.57;8.57;;;-3.80;99.90;;;-141.84;76.42;18671.81;5049716;28;20238;-61
2022/11/19 07:01:06;;;;;;;12.57;8.57;;;-3.70;99.90;;;-141.84;76.44;18661.66;5050458;28;20285;-61
2022/11/19 07:03:35;;;;;;;12.60;9.43;;;-3.70;99.90;;;-141.84;76.86;18641.34;5054007;28;20226;-61
2022/11/19 07:06:05;;;;;;;14.00;8.87;;;-3.60;99.90;;;-141.84;77.33;18655.56;5053825;28;20282;-61
2022/11/19 07:08:34;;;;;;;11.23;8.50;;;-3.70;99.90;;;-141.84;77.41;18669.78;5053295;28;20231;-62
2022/11/19 07:11:24;;;;;;;11.30;8.73;;;-3.60;99.90;;;-141.84;77.12;18661.66;5053397;28;20259;-62
2022/11/19 07:13:58;;;;;;;12.50;8.80;;;-3.60;99.90;;;-141.84;77.14;18665.72;5053513;28;20231;-62
2022/11/19 07:16:32;;;;;;;11.73;9.50;;;-3.50;99.90;;;-141.84;77.03;18659.63;5053526;28;20262;-61
2022/11/19 07:19:03;;;;;;;12.97;8.93;;;-3.50;99.90;;;-141.84;76.79;18641.34;5053369;28;20709;-62
2022/11/19 07:21:32;;;;;;;12.57;8.53;;;-3.40;99.90;;;-141.84;76.97;18659.63;5053586;28;20529;-62
2022/11/19 07:24:03;;;;;;;13.03;9.03;;;-3.40;99.90;;;-141.84;76.79;18649.47;5053353;28;20241;-62
2022/11/19 07:26:33;;;;;;;11.13;8.03;;;-3.40;99.90;;;-141.84;76.38;18671.81;5071515;28;20711;-61
2022/11/19 07:29:06;;;;;;;11.47;8.20;;;-3.30;99.90;;;-141.84;75.79;18631.19;5073282;28;20281;-63
2022/11/19 07:31:35;;;;;;;13.60;9.23;;;-3.20;99.90;;;-141.84;75.23;18714.50;5076280;28;20235;-61
2022/11/19 07:34:06;;;;;;;13.63;9.03;;;-3.20;99.90;;;-141.84;75.21;18677.91;5075322;28;20305;-62
2022/11/19 07:36:35;;;;;;;12.67;8.30;;;-3.10;99.90;;;-141.84;75.54;18681.97;5065659;28;20228;-61
2022/11/19 07:39:04;;;;;;;11.63;8.67;;;-3.10;99.90;;;-141.84;75.47;18696.19;5053774;28;20236;-61
2022/11/19 07:44:19;;;;;;;11.33;8.73;;;-2.90;99.90;;;-141.84;75.32;18679.94;5034171;28;20229;-61
2022/11/19 07:46:47;;;;;;;10.50;8.17;;;-2.80;99.90;;;-141.84;75.38;18681.97;5033953;28;20249;-62
2022/11/19 07:49:15;;;;;;;10.73;8.20;;;-2.80;99.90;;;-141.84;75.40;18706.38;5034069;28;20278;-61
2022/11/19 07:51:44;;;;;;;11.87;8.90;;;-2.70;99.90;;;-141.84;75.16;18645.41;5034029;28;20209;-61
2022/11/19 07:54:13;;;;;;;12.07;8.60;;;-2.60;99.90;;;-141.84;74.98;18675.88;5034330;28;20208;-60
2022/11/19 07:56:41;;;;;;;12.37;8.30;;;-2.40;99.90;;;-141.84;74.74;18681.97;5033386;28;20236;-60
2022/11/19 07:59:10;;;;;;;14.27;9.73;;;-2.40;99.90;;;-141.84;74.74;18663.69;5033781;28;20225;-61
2022/11/19 08:01:39;;;;;;;10.33;8.10;;;-2.30;99.90;;;-141.84;74.05;18700.25;5033615;28;20248;-60
2022/11/19 08:04:08;;;;;;;13.00;8.73;;;-2.20;99.90;;;-141.84;73.36;18724.66;5033817;28;20299;-61
2022/11/19 08:06:36;;;;;;;10.70;7.93;;;-2.10;99.90;;;-141.84;73.43;18700.25;5033975;28;20539;-62
2022/11/19 08:09:05;;;;;;;10.93;7.80;;;-2.00;99.90;;;-141.84;73.46;18700.25;5034093;28;20210;-60
2022/11/19 08:11:33;;;;;;;11.03;8.20;;;-1.90;99.90;;;-141.84;72.52;18708.41;5033498;28;20283;-60
2022/11/19 08:14:01;;;;;;;10.10;8.00;;;-1.80;99.90;;;-141.84;71.22;18698.22;5032029;28;20237;-60
2022/11/19 08:19:19;;;;;;;10.07;7.90;;;-1.70;99.90;;;-141.84;69.99;18722.63;5033558;28;20240;-60
2022/11/19 08:21:48;;;;;;;11.77;8.00;;;-1.60;99.90;;;-141.84;70.41;18720.59;5033438;28;20210;-60
2022/11/19 08:24:18;;;;;;;9.63;7.80;;;-1.40;99.90;;;-141.84;70.83;18742.94;5033867;28;20260;-61
2022/11/19 08:26:48;;;;;;;11.33;8.03;;;-1.20;99.90;;;-141.84;69.20;18761.22;5051482;28;20278;-61
2022/11/19 08:29:20;;;;;;;10.50;7.90;;;-1.00;99.90;;;-141.84;68.51;18724.66;5039050;28;20794;-60
2022/11/19 08:31:49;;;;;;;11.23;8.23;;;-0.90;99.90;;;-141.84;68.54;18753.09;5033263;28;20232;-60
2022/11/19 08:34:19;;;;;;;9.07;7.20;;;-0.80;99.90;;;-141.84;67.27;18755.13;5033220;28;20237;-60
2022/11/19 08:36:47;;;;;;;10.37;7.70;;;-0.70;99.90;;;-141.84;67.19;18809.97;5033270;28;20206;-60
2022/11/19 08:39:15;;;;;;;9.57;7.33;;;-0.60;99.90;;;-141.84;66.98;18773.41;5033546;28;20206;-60
2022/11/19 08:44:29;;;;;;;10.60;7.93;;;-0.30;99.90;;;-141.84;65.81;18781.53;5033303;28;20233;-62
2022/11/19 08:46:57;;;;;;;10.97;7.77;;;-0.20;99.90;;;-141.84;65.60;18820.16;5052721;28;20287;-60
2022/11/19 08:49:26;;;;;;;10.70;8.03;;;0.00;99.90;;;-141.84;65.36;18799.81;5036217;28;20352;-60
2022/11/19 08:51:56;;;;;;;12.53;9.17;;;0.10;99.90;;;-141.84;64.38;18836.41;5033145;28;20202;-60
2022/11/19 08:54:24;;;;;;;10.10;8.20;;;0.30;99.90;;;-141.84;63.57;18836.41;5033340;28;20198;-61
2022/11/19 08:56:52;;;;;;;9.10;7.50;;;0.40;99.90;;;-141.84;62.51;18834.38;5028031;28;20959;-61
2022/11/19 08:59:20;;;;;;;11.00;8.50;;;0.30;99.90;;;-141.84;63.27;18820.16;5012140;28;20244;-63
2022/11/19 09:01:49;;;;;;;10.80;8.13;;;0.40;99.90;;;-141.84;63.10;18830.31;5012620;28;20238;-61
2022/11/19 09:04:18;;;;;;;10.67;8.33;;;0.50;99.90;;;-141.84;62.82;18866.88;5012614;28;20234;-61
2022/11/19 09:06:48;;;;;;;10.47;8.53;;;0.60;99.90;;;-141.84;63.07;18858.75;5013002;28;20203;-61
2022/11/19 09:09:16;;;;;;;13.00;9.10;;;0.80;99.90;;;-141.84;63.42;18866.88;5019474;28;20205;-61
2022/11/19 09:11:44;;;;;;;11.97;8.57;;;0.70;99.90;;;-141.84;63.07;18852.66;5032135;28;20234;-61
2022/11/19 09:14:12;;;;;;;10.43;8.43;;;0.90;99.90;;;-141.84;62.44;18897.34;5032333;28;20230;-60
2022/11/19 09:16:41;;;;;;;12.13;8.70;;;1.00;99.90;;;-141.84;61.90;18895.31;5032261;28;20740;-60
2022/11/19 09:19:09;;;;;;;11.10;8.63;;;1.10;99.90;;;-141.84;61.75;18927.84;5032449;28;20226;-61
2022/11/19 09:21:37;;;;;;;12.10;8.23;;;1.30;99.90;;;-141.84;61.75;18879.06;5032322;28;20199;-60
2022/11/19 09:24:07;;;;;;;11.27;9.10;;;1.30;99.90;;;-141.84;60.96;18929.88;5032686;28;20198;-61
2022/11/19 09:26:35;;;;;;;13.60;9.47;;;1.20;99.90;;;-141.84;61.39;18911.56;5031846;28;20233;-61
2022/11/19 09:29:04;;;;;;;11.43;8.80;;;1.40;99.90;;;-141.84;60.87;18929.88;5032121;28;20284;-61
2022/11/19 09:31:32;;;;;;;12.07;9.40;;;1.40;99.90;;;-141.84;59.02;18956.28;5032184;28;20288;-62
2022/11/19 09:34:00;;;;;;;12.17;9.43;;;1.60;99.90;;;-141.84;60.18;18956.28;5037228;28;20786;-60
2022/11/19 09:36:28;;;;;;;11.57;9.53;;;1.60;99.90;;;-141.84;59.57;18944.09;5035675;28;20210;-66
2022/11/19 09:38:57;;;;;;;10.80;8.43;;;1.70;99.90;;;-141.84;60.18;18938.00;5035615;28;20225;-63
2022/11/19 09:41:43;;;;;;;12.67;10.20;;;1.80;99.90;;;-141.84;59.60;18954.25;5037644;28;20230;-61
2022/11/19 09:44:47;;;;;;;13.20;9.20;;;1.80;99.90;;;-141.84;59.44;18996.91;5035672;28;20666;-61
2022/11/19 09:47:32;;;;;;;11.63;8.90;;;1.90;99.90;;;-141.84;58.87;18970.50;5033284;28;20248;-60
2022/11/19 09:50:11;;;;;;;12.33;9.40;;;2.10;99.90;;;-141.84;58.99;18984.72;5031946;28;20241;-63
2022/11/19 09:52:46;;;;;;;11.43;9.47;;;2.20;99.90;;;-141.84;58.66;18960.34;5032115;28;20232;-61
2022/11/19 09:55:26;;;;;;;12.40;9.40;;;2.20;99.90;;;-141.84;57.61;18976.59;5032107;28;20247;-61
2022/11/19 09:57:59;;;;;;;11.73;8.77;;;2.40;99.90;;;-141.84;57.89;19000.97;5031718;28;20276;-61
2022/11/19 10:00:30;;;;;;;12.60;8.83;;;2.50;99.90;;;-141.84;56.53;19041.63;5032341;28;20632;-60
2022/11/19 10:03:11;;;;;;;13.33;8.60;;;2.70;99.90;;;-141.84;56.27;19102.56;5031823;28;20254;-63
2022/11/19 10:06:03;;;;;;;11.23;8.83;;;2.70;99.90;;;-141.84;56.12;19021.31;5031542;28;20231;-61
2022/11/19 10:08:49;;;;;;;11.70;9.30;;;2.50;99.90;;;-141.84;55.33;19039.59;5030514;28;20222;-61
2022/11/19 10:11:41;;;;;;;12.60;8.80;;;2.60;99.90;;;-141.84;55.90;19015.19;5030050;28;20239;-60
2022/11/19 10:14:33;;;;;;;11.90;9.10;;;2.50;99.90;;;-141.84;57.14;19053.81;5031419;28;20233;-60
2022/11/19 10:17:15;;;;;;;18.03;9.43;;;2.30;99.90;;;-141.84;57.94;19005.03;5031668;28;20641;-61
2022/11/19 10:20:08;;;;;;;10.83;8.60;;;2.20;99.90;;;-141.84;57.52;19000.97;5031525;28;20687;-60
2022/11/19 10:22:43;;;;;;;11.23;8.73;;;2.30;99.90;;;-141.84;57.69;19009.09;5031476;28;20235;-60
2022/11/19 10:25:18;;;;;;;12.77;9.03;;;2.30;99.90;;;-141.84;57.33;19015.19;5031679;28;20283;-61
2022/11/19 10:27:53;;;;;;;11.40;8.97;;;2.30;99.90;;;-141.84;57.46;19021.31;5031050;28;20648;-60
2022/11/19 10:30:26;;;;;;;11.57;8.37;;;2.20;99.90;;;-141.84;57.14;19015.19;5032097;28;20260;-60
2022/11/19 10:33:02;;;;;;;9.47;7.97;;;2.40;99.90;;;-141.84;56.93;19027.41;5031620;28;20233;-60
2022/11/19 10:35:38;;;;;;;9.40;7.73;;;2.50;99.90;;;-141.84;56.56;19031.47;5031719;28;20221;-61
2022/11/19 10:38:19;;;;;;;11.63;8.60;;;2.60;99.90;;;-141.84;55.04;19033.50;5035573;28;20233;-59
2022/11/19 10:40:54;;;;;;;11.50;8.30;;;2.80;99.90;;;-141.84;56.30;19021.31;5032590;28;20295;-59
2022/11/19 10:43:29;;;;;;;9.13;7.67;;;2.40;99.90;;;-141.84;57.05;19029.44;5015842;28;20233;-60
2022/11/19 10:46:04;;;;;;;10.87;8.13;;;2.30;99.90;;;-141.84;57.60;19041.63;5015598;28;20226;-62
2022/11/19 10:48:41;;;;;;;12.43;7.90;;;2.20;99.90;;;-141.84;56.86;18994.88;5015599;28;20757;-60